Time;durP1;ratioP1;P1;durP2;ratioP2;P2;SDS_P1;SDS_P2;PMS_P1;PMS_P2;Temp;Humidity;BMP_temperature;BMP_pressure;BME280_temperature;BME280_humidity;BME280_pressure;Samples;Min_cycle;Max_cycle;Signal;HPM_P1;HPM_P2
2023/06/16 00:01:35;;;;;;;2.53;2.08;;;;;;;17.44;52.47;101761.13;5035236;28;20030;-82
2023/06/16 00:04:03;;;;;;;2.30;2.10;;;;;;;17.39;53.08;101749.03;5035097;28;20405;-82
2023/06/16 00:06:46;;;;;;;2.10;1.90;;;;;;;17.36;53.46;101759.59;5033602;28;20034;-82
2023/06/16 00:09:13;;;;;;;2.10;1.90;;;;;;;17.31;52.96;101756.25;5034674;28;20033;-82
2023/06/16 00:11:38;;;;;;;1.90;1.80;;;;;;;17.31;53.52;101757.13;5034009;28;20030;-81
2023/06/16 00:14:03;;;;;;;2.10;1.90;;;;;;;17.21;53.79;101743.41;5048537;28;20024;-82
2023/06/16 00:16:29;;;;;;;2.17;2.03;;;;;;;17.19;53.77;101754.84;5053408;28;20045;-82
2023/06/16 00:18:57;;;;;;;2.08;1.90;;;;;;;17.18;53.67;101761.84;5054018;28;20496;-82
2023/06/16 00:21:29;;;;;;;2.20;2.00;;;;;;;17.16;54.03;101752.31;5054716;28;20064;-82
2023/06/16 00:23:55;;;;;;;2.20;2.00;;;;;;;17.12;53.83;101754.16;5054856;28;20032;-82
2023/06/16 00:26:22;;;;;;;2.08;1.90;;;;;;;17.06;54.47;101763.06;5053609;28;20024;-82
2023/06/16 00:28:48;;;;;;;2.40;2.20;;;;;;;17.00;53.91;101750.09;5054507;28;20465;-82
2023/06/16 00:31:15;;;;;;;2.40;2.20;;;;;;;16.98;54.01;101755.41;5054096;28;20096;-82
2023/06/16 00:33:40;;;;;;;2.33;2.13;;;;;;;16.92;54.44;101744.19;5053443;28;20227;-82
2023/06/16 00:36:08;;;;;;;2.30;2.10;;;;;;;16.88;54.78;101753.06;5053601;28;20598;-82
2023/06/16 00:38:34;;;;;;;3.47;2.22;;;;;;;16.79;54.92;101748.91;5054287;28;20025;-82
2023/06/16 00:41:00;;;;;;;2.60;2.40;;;;;;;16.77;55.05;101755.94;5053270;28;20538;-82
2023/06/16 00:43:25;;;;;;;2.83;2.35;;;;;;;16.77;55.68;101756.84;5042349;28;20038;-82
2023/06/16 00:45:51;;;;;;;2.43;2.23;;;;;;;16.73;55.20;101760.44;5033786;28;20052;-82
2023/06/16 00:48:17;;;;;;;2.57;2.20;;;;;;;16.68;55.34;101757.06;5032697;28;20022;-82
2023/06/16 00:50:43;;;;;;;3.88;2.40;;;;;;;16.66;54.99;101753.63;5034299;28;20323;-82
2023/06/16 00:53:09;;;;;;;2.67;2.30;;;;;;;16.61;55.60;101758.13;5033454;28;20124;-82
2023/06/16 00:55:35;;;;;;;3.07;2.50;;;;;;;16.56;55.61;101755.63;5033246;28;20117;-82
2023/06/16 00:58:00;;;;;;;2.60;2.40;;;;;;;16.52;56.19;101757.47;5034176;28;20046;-82
2023/06/16 01:00:25;;;;;;;2.57;2.37;;;;;;;16.47;55.61;101750.63;5033517;28;20449;-82
2023/06/16 01:02:51;;;;;;;4.33;2.40;;;;;;;16.44;55.96;101745.47;5032915;28;20496;-82
2023/06/16 01:05:21;;;;;;;2.67;2.47;;;;;;;16.39;56.25;101745.56;5033773;28;20030;-82
2023/06/16 01:08:01;;;;;;;5.00;2.42;;;;;;;16.38;56.20;101748.25;5032815;28;20485;-82
2023/06/16 01:10:48;;;;;;;3.03;2.65;;;;;;;16.33;56.37;101737.84;5033334;28;20029;-82
2023/06/16 01:13:32;;;;;;;;;;;;;;;16.30;56.88;101735.34;5041653;28;20028;-82
2023/06/16 01:16:01;;;;;;;2.92;2.50;;;;;;;16.27;56.54;101736.25;5052377;28;19916;-82
2023/06/16 01:18:27;;;;;;;3.42;2.63;;;;;;;16.23;56.74;101738.97;5052836;28;20070;-82
2023/06/16 01:20:59;;;;;;;3.22;2.58;;;;;;;16.19;56.96;101738.22;5053130;28;20044;-82
2023/06/16 01:23:52;;;;;;;3.05;2.58;;;;;;;16.15;57.10;101736.59;5052018;28;20021;-82
2023/06/16 01:26:19;;;;;;;2.42;2.22;;;;;;;16.09;57.27;101739.34;5052814;28;20083;-82
2023/06/16 01:28:45;;;;;;;3.17;2.40;;;;;;;16.06;57.54;101738.50;5040913;28;20022;-82
2023/06/16 01:31:15;;;;;;;4.07;2.53;;;;;;;16.02;57.33;101741.22;5036111;28;20075;-82
2023/06/16 01:33:43;;;;;;;2.78;2.40;;;;;;;15.99;57.43;101738.69;5051601;28;20104;-81
2023/06/16 01:36:09;;;;;;;2.90;2.30;;;;;;;15.89;57.96;101731.03;5051818;28;20033;-81
2023/06/16 01:38:35;;;;;;;2.45;2.25;;;;;;;15.92;57.85;101738.00;5052268;28;20029;-82
2023/06/16 01:41:01;;;;;;;;;;;;;;;15.87;57.98;101732.00;5053802;28;20024;-82
2023/06/16 01:43:27;;;;;;;3.23;2.50;;;;;;;15.79;58.24;101729.50;5052229;28;20323;-82
2023/06/16 01:45:53;;;;;;;2.57;2.37;;;;;;;15.76;58.26;101729.59;5053299;28;20025;-82
2023/06/16 01:48:20;;;;;;;2.28;2.08;;;;;;;15.73;59.37;101729.66;5052695;28;20055;-82
2023/06/16 01:50:46;;;;;;;2.30;2.10;;;;;;;15.67;59.10;101720.19;5052533;28;20155;-82
2023/06/16 01:53:11;;;;;;;2.20;2.00;;;;;;;15.64;58.43;101715.03;5052792;28;20049;-81
2023/06/16 01:55:36;;;;;;;1.80;1.70;;;;;;;15.64;58.32;101720.25;5053185;28;20021;-82
2023/06/16 01:58:02;;;;;;;4.00;2.77;;;;;;;15.63;58.89;101726.38;5051836;28;20021;-81
2023/06/16 02:00:57;;;;;;;2.57;2.30;;;;;;;15.67;58.59;101719.31;5052599;28;20063;-82
2023/06/16 02:03:28;;;;;;;2.35;2.15;;;;;;;15.70;57.56;101725.38;5052847;28;20043;-82
2023/06/16 02:05:54;;;;;;;2.50;2.17;;;;;;;15.71;57.59;101727.06;5051936;28;20119;-82
2023/06/16 02:08:25;;;;;;;2.50;2.20;;;;;;;15.74;57.42;101732.25;5046953;28;20022;-82
2023/06/16 02:10:50;;;;;;;2.20;2.00;;;;;;;15.74;57.50;101731.38;5033886;28;20029;-82
2023/06/16 02:13:16;;;;;;;2.07;1.87;;;;;;;15.75;57.49;101733.13;5051556;28;20090;-82
2023/06/16 02:15:41;;;;;;;2.47;2.20;;;;;;;15.71;57.41;101729.69;5052280;28;20392;-82
2023/06/16 02:18:09;;;;;;;2.20;2.00;;;;;;;15.71;57.71;101741.91;5051075;28;20056;-81
2023/06/16 02:20:36;;;;;;;2.97;2.00;;;;;;;15.69;58.03;101733.22;5052803;28;20032;-82
2023/06/16 02:23:01;;;;;;;2.33;2.13;;;;;;;15.65;57.67;101736.84;5052597;28;20033;-82
2023/06/16 02:25:26;;;;;;;2.57;2.20;;;;;;;15.53;58.02;101723.13;5053725;28;20049;-82
2023/06/16 02:27:52;;;;;;;2.40;2.20;;;;;;;15.51;57.63;101726.66;5052595;28;20017;-82
2023/06/16 02:30:17;;;;;;;2.40;2.20;;;;;;;15.41;58.02;101718.16;5052814;28;20025;-82
2023/06/16 02:32:43;;;;;;;2.80;2.30;;;;;;;15.42;57.67;101736.44;5050002;28;20029;-81
2023/06/16 02:35:09;;;;;;;2.92;2.50;;;;;;;15.37;58.06;101743.50;5052131;28;20100;-81
2023/06/16 02:37:35;;;;;;;2.80;2.50;;;;;;;15.34;58.40;101746.19;5054892;28;20052;-82
2023/06/16 02:40:04;;;;;;;2.92;2.30;;;;;;;15.27;58.94;101745.47;5055956;28;20029;-82
2023/06/16 02:42:32;;;;;;;2.88;2.47;;;;;;;15.22;58.71;101741.22;5055889;28;20110;-81
2023/06/16 02:44:57;;;;;;;3.75;2.53;;;;;;;15.20;58.77;101741.22;5056089;28;20035;-82
2023/06/16 02:47:23;;;;;;;4.07;2.80;;;;;;;15.15;59.34;101732.63;5055043;28;20017;-82
2023/06/16 02:49:48;;;;;;;2.77;2.30;;;;;;;15.09;59.12;101731.00;5056496;28;20025;-82
2023/06/16 02:52:14;;;;;;;3.40;2.60;;;;;;;15.08;59.57;101733.66;5055736;28;20024;-82
2023/06/16 02:54:40;;;;;;;2.80;2.50;;;;;;;15.03;59.56;101741.56;5055511;28;20017;-82
2023/06/16 02:57:07;;;;;;;2.83;2.40;;;;;;;14.98;59.65;101732.97;5043441;28;20068;-81
2023/06/16 02:59:33;;;;;;;2.97;2.50;;;;;;;14.95;59.59;101739.13;5035747;28;20029;-82
2023/06/16 03:01:58;;;;;;;3.00;2.43;;;;;;;14.92;59.66;101740.91;5035332;28;20389;-82
2023/06/16 03:04:24;;;;;;;3.27;2.60;;;;;;;14.88;60.02;101739.28;5054084;28;20473;-82
2023/06/16 03:06:51;;;;;;;2.85;2.28;;;;;;;14.82;60.09;101730.63;5055940;28;20380;-81
2023/06/16 03:09:16;;;;;;;2.58;2.38;;;;;;;14.82;60.52;101742.84;5054685;28;20021;-81
2023/06/16 03:11:41;;;;;;;3.13;2.40;;;;;;;14.77;60.93;101745.56;5055833;28;20047;-81
2023/06/16 03:14:07;;;;;;;3.00;2.43;;;;;;;14.74;60.51;101742.16;5055265;28;20021;-81
2023/06/16 03:16:35;;;;;;;2.90;2.60;;;;;;;14.70;60.34;101738.69;5054512;28;20052;-81
2023/06/16 03:19:00;;;;;;;2.95;2.45;;;;;;;14.66;61.15;101740.47;5055712;28;20035;-81
2023/06/16 03:21:26;;;;;;;3.70;2.60;;;;;;;14.61;61.09;101731.88;5054527;28;20104;-81
2023/06/16 03:23:51;;;;;;;3.67;2.60;;;;;;;14.63;60.73;101745.78;5055676;28;20029;-82
2023/06/16 03:26:18;;;;;;;3.60;2.63;;;;;;;14.60;61.40;101745.84;5055525;28;20029;-81
2023/06/16 03:28:43;;;;;;;;;;;;;;;14.56;61.35;101740.69;5055127;28;20487;-81
2023/06/16 03:31:10;;;;;;;3.13;2.50;;;;;;;14.47;61.53;101734.72;5047581;28;19913;-81
2023/06/16 03:33:35;;;;;;;4.45;2.80;;;;;;;14.48;61.73;101736.44;5035651;28;20037;-81
2023/06/16 03:36:03;;;;;;;3.30;2.77;;;;;;;14.48;61.89;101735.59;5101892;22;20052;-81
2023/06/16 03:38:29;;;;;;;2.92;2.40;;;;;;;14.47;62.19;101739.09;5054368;28;20496;-81
2023/06/16 03:40:54;;;;;;;3.83;2.70;;;;;;;14.43;62.14;101737.41;5055248;28;20155;-81
2023/06/16 03:43:22;;;;;;;2.90;2.60;;;;;;;14.41;61.78;101747.91;5054215;28;20028;-81
2023/06/16 03:45:47;;;;;;;3.92;2.60;;;;;;;14.40;62.11;101745.31;5055480;28;20036;-81
2023/06/16 03:48:13;;;;;;;3.17;2.70;;;;;;;14.39;62.18;101749.66;5054587;28;20384;-82
2023/06/16 03:50:38;;;;;;;4.13;2.80;;;;;;;14.36;62.55;101747.09;5054088;28;20020;-82
2023/06/16 03:53:03;;;;;;;4.13;2.63;;;;;;;14.38;62.12;101750.53;5055216;28;20021;-82
2023/06/16 03:55:29;;;;;;;3.30;2.53;;;;;;;14.33;62.46;101744.56;5054583;28;20029;-81
2023/06/16 03:57:54;;;;;;;4.17;2.70;;;;;;;14.27;62.80;101736.81;5054253;28;20047;-82
2023/06/16 04:00:20;;;;;;;3.00;2.50;;;;;;;14.35;63.48;101750.63;5054361;28;20033;-82
2023/06/16 04:02:45;;;;;;;4.30;2.90;;;;;;;14.32;62.61;101742.84;5054695;28;20033;-81
2023/06/16 04:05:10;;;;;;;3.37;2.53;;;;;;;14.31;62.64;101748.94;5053634;28;20025;-81
2023/06/16 04:07:35;;;;;;;4.03;2.60;;;;;;;14.27;62.72;101744.63;5054780;28;20059;-81
2023/06/16 04:10:02;;;;;;;2.83;2.37;;;;;;;14.29;63.39;101750.72;5054770;28;20069;-81
2023/06/16 04:12:27;;;;;;;3.13;2.53;;;;;;;14.29;63.16;101754.19;5053346;28;20028;-82
2023/06/16 04:14:52;;;;;;;3.63;2.73;;;;;;;14.32;63.26;101748.06;5054880;28;20488;-81
2023/06/16 04:17:18;;;;;;;5.80;2.90;;;;;;;14.33;63.55;101755.84;5054529;28;20051;-82
2023/06/16 04:19:45;;;;;;;3.70;2.83;;;;;;;14.37;63.93;101764.50;5053844;28;20025;-82
2023/06/16 04:22:11;;;;;;;5.65;2.60;;;;;;;14.39;63.35;101757.50;5055290;28;20051;-82
2023/06/16 04:24:36;;;;;;;4.73;2.80;;;;;;;14.42;63.34;101764.41;5053631;28;20071;-81
2023/06/16 04:27:02;;;;;;;3.13;2.70;;;;;;;14.43;63.29;101755.69;5054441;28;20141;-81
2023/06/16 04:29:28;;;;;;;4.70;2.80;;;;;;;14.48;63.33;101765.19;5053979;28;20147;-81
2023/06/16 04:31:59;;;;;;;4.73;2.80;;;;;;;14.52;63.94;101763.41;5066895;28;20753;-81
2023/06/16 04:34:25;;;;;;;4.57;2.90;;;;;;;14.54;63.44;101763.34;5074006;28;20487;-81
2023/06/16 04:36:50;;;;;;;3.57;2.70;;;;;;;14.58;63.55;101763.28;5074206;28;20052;-82
2023/06/16 04:39:16;;;;;;;4.27;2.67;;;;;;;14.62;63.84;101771.91;5073325;28;20500;-81
2023/06/16 04:41:42;;;;;;;6.00;3.10;;;;;;;14.66;63.24;101763.16;5074098;28;20085;-82
2023/06/16 04:44:08;;;;;;;;;;;;;;;14.73;63.46;101767.41;5074258;28;20031;-81
2023/06/16 04:46:33;;;;;;;4.68;3.20;;;;;;;14.79;63.63;101769.03;5073180;28;19913;-81
2023/06/16 04:48:59;;;;;;;5.20;3.10;;;;;;;14.84;63.44;101775.06;5072215;28;20069;-82
2023/06/16 04:51:26;;;;;;;5.60;3.03;;;;;;;14.86;63.50;101770.63;5053652;28;20393;-81
2023/06/16 04:53:51;;;;;;;4.25;2.90;;;;;;;14.91;63.43;101770.59;5052716;28;20132;-81
2023/06/16 04:56:17;;;;;;;5.30;3.10;;;;;;;15.00;63.40;101773.03;5053367;28;20469;-81
2023/06/16 04:58:42;;;;;;;4.93;3.10;;;;;;;15.07;63.43;101777.22;5067146;22;20011;-81
2023/06/16 05:01:07;;;;;;;4.10;3.00;;;;;;;15.12;63.23;101779.75;5032083;28;20381;-81
2023/06/16 05:03:33;;;;;;;3.77;3.03;;;;;;;15.17;63.21;101780.53;5034010;28;20029;-81
2023/06/16 05:05:59;;;;;;;5.30;2.97;;;;;;;15.22;63.71;101776.06;5033543;28;20028;-81
2023/06/16 05:08:24;;;;;;;4.00;3.00;;;;;;;15.29;63.64;101775.06;5032708;28;20469;-81
2023/06/16 05:10:49;;;;;;;3.87;3.10;;;;;;;15.36;63.64;101780.16;5034016;28;20029;-81
2023/06/16 05:13:14;;;;;;;3.10;2.77;;;;;;;15.41;63.37;101773.09;5033700;28;20040;-81
2023/06/16 05:15:40;;;;;;;3.53;2.47;;;;;;;15.48;63.56;101777.28;5032759;28;20112;-82
2023/06/16 05:18:05;;;;;;;3.47;2.63;;;;;;;15.50;62.86;101769.41;5033562;28;20021;-82
2023/06/16 05:20:32;;;;;;;2.80;2.40;;;;;;;15.56;63.22;101775.38;5033797;28;20113;-82
2023/06/16 05:22:57;;;;;;;3.33;2.47;;;;;;;15.65;63.12;101779.56;5032760;28;20468;-81
2023/06/16 05:25:23;;;;;;;2.80;2.50;;;;;;;15.73;63.17;101782.00;5033062;28;20037;-81
2023/06/16 05:27:48;;;;;;;2.50;2.30;;;;;;;15.78;62.39;101779.28;5033635;28;20286;-83
2023/06/16 05:30:14;;;;;;;2.27;2.07;;;;;;;15.86;62.30;101773.03;5032440;28;20022;-83
2023/06/16 05:32:40;;;;;;;2.63;2.30;;;;;;;15.94;62.25;101783.28;5033310;28;20025;-81
2023/06/16 05:35:07;;;;;;;2.80;2.40;;;;;;;16.02;61.66;101783.13;5032576;28;20029;-78
2023/06/16 05:37:32;;;;;;;2.67;2.20;;;;;;;16.10;62.25;101783.78;5033221;28;20049;-78
2023/06/16 05:39:58;;;;;;;1.80;1.70;;;;;;;16.19;61.51;101786.22;5050912;28;20068;-78
2023/06/16 05:42:23;;;;;;;3.67;2.80;;;;;;;16.25;61.42;101785.22;5051841;28;20115;-78
2023/06/16 05:44:48;;;;;;;3.37;2.73;;;;;;;16.28;61.08;101774.66;5052987;28;20025;-78
2023/06/16 05:47:14;;;;;;;5.13;3.50;;;;;;;16.36;61.31;101787.56;5052864;28;20134;-78
2023/06/16 05:49:39;;;;;;;8.90;5.13;;;;;;;16.41;61.26;101784.81;5052211;28;20464;-78
2023/06/16 05:52:05;;;;;;;7.70;4.50;;;;;;;16.50;60.48;101788.09;5052855;28;20021;-78
2023/06/16 05:54:35;;;;;;;8.20;4.80;;;;;;;16.61;60.59;101789.56;5053028;28;20033;-78
2023/06/16 05:57:01;;;;;;;8.45;5.25;;;;;;;16.71;60.16;101788.44;5052456;28;20059;-78
2023/06/16 05:59:27;;;;;;;8.57;4.40;;;;;;;16.82;60.33;101794.25;5052582;28;20465;-78
2023/06/16 06:01:52;;;;;;;4.40;3.20;;;;;;;17.60;60.66;101795.63;5039530;28;20071;-78
2023/06/16 06:04:28;;;;;;;8.67;4.07;;;;;;;19.35;54.53;101796.06;5031781;28;20034;-79
2023/06/16 06:06:53;;;;;;;4.07;3.05;;;;;;;20.65;53.00;101794.47;5031720;28;20029;-78
2023/06/16 06:09:20;;;;;;;5.83;3.50;;;;;;;21.77;52.00;101789.53;5032555;28;20082;-78
2023/06/16 06:11:45;;;;;;;4.57;2.80;;;;;;;22.93;50.93;101799.66;5032319;28;20032;-78
2023/06/16 06:14:11;;;;;;;4.60;2.70;;;;;;;24.20;45.50;101795.41;5038165;28;20377;-78
2023/06/16 06:16:37;;;;;;;3.13;2.60;;;;;;;24.88;45.92;101792.38;5032416;28;20033;-82
2023/06/16 06:19:12;;;;;;;3.42;2.50;;;;;;;25.20;43.53;101806.28;5031766;28;20025;-83
2023/06/16 06:21:39;;;;;;;11.70;5.72;;;;;;;24.59;38.36;101805.56;5032828;28;20029;-82
2023/06/16 06:24:05;;;;;;;12.85;5.55;;;;;;;23.64;41.04;101810.06;5033003;28;20148;-82
2023/06/16 06:26:30;;;;;;;7.97;4.40;;;;;;;23.10;44.11;101814.66;5031910;28;20461;-82
2023/06/16 06:28:58;;;;;;;4.83;3.70;;;;;;;22.89;45.58;101807.84;5033549;28;20133;-82
2023/06/16 06:31:24;;;;;;;4.95;3.50;;;;;;;22.95;43.87;101812.78;5031490;28;20032;-81
2023/06/16 06:33:50;;;;;;;6.40;3.70;;;;;;;22.90;44.90;101817.50;5032557;28;20041;-81
2023/06/16 06:36:26;;;;;;;9.77;4.90;;;;;;;22.50;41.25;101820.38;5032097;28;20026;-80
2023/06/16 06:38:52;;;;;;;9.13;4.47;;;;;;;22.32;42.09;101820.31;5031952;28;20099;-80
2023/06/16 06:41:19;;;;;;;5.05;3.70;;;;;;;22.35;44.94;101816.66;5032409;28;20053;-80
2023/06/16 06:43:44;;;;;;;5.20;3.58;;;;;;;22.53;42.39;101812.28;5032727;28;20026;-80
2023/06/16 06:46:10;;;;;;;7.10;3.97;;;;;;;22.50;40.89;101812.47;5031483;28;20022;-80
2023/06/16 06:48:35;;;;;;;6.27;3.70;;;;;;;22.52;44.01;101810.56;5032241;28;20033;-81
2023/06/16 06:51:00;;;;;;;6.00;3.90;;;;;;;22.54;42.67;101813.16;5032686;28;20025;-80
2023/06/16 06:53:26;;;;;;;9.30;4.50;;;;;;;22.53;40.08;101817.56;5031498;28;20030;-80
2023/06/16 06:55:53;;;;;;;10.47;4.77;;;;;;;22.26;40.35;101814.47;5014379;28;20032;-80
2023/06/16 06:58:18;;;;;;;8.13;4.40;;;;;;;22.26;41.04;101818.00;5037462;28;20037;-80
2023/06/16 07:00:45;;;;;;;6.57;3.97;;;;;;;22.36;41.92;101821.03;5051361;28;20048;-81
2023/06/16 07:03:12;;;;;;;8.13;4.20;;;;;;;22.37;41.95;101826.25;5051525;28;20120;-80
2023/06/16 07:05:37;;;;;;;7.88;4.30;;;;;;;22.15;40.18;101818.50;5040503;28;20036;-81
2023/06/16 07:08:05;;;;;;;6.87;4.00;;;;;;;22.24;41.74;101825.16;5028747;28;20034;-80
2023/06/16 07:10:32;;;;;;;4.88;3.47;;;;;;;22.44;42.03;101824.19;5030806;28;20032;-81
2023/06/16 07:12:58;;;;;;;5.63;4.00;;;;;;;22.67;39.66;101830.13;5032326;28;20080;-80
2023/06/16 07:15:23;;;;;;;6.60;3.70;;;;;;;22.76;41.33;101828.78;5030863;28;20420;-80
2023/06/16 07:17:49;;;;;;;6.90;4.10;;;;;;;22.77;39.61;101825.19;5031805;28;20022;-80
2023/06/16 07:20:14;;;;;;;5.43;3.50;;;;;;;22.83;40.76;101830.19;5032203;28;20031;-81
2023/06/16 07:22:39;;;;;;;4.07;3.13;;;;;;;23.15;41.08;101830.28;5032240;28;20372;-80
2023/06/16 07:25:05;;;;;;;4.90;3.30;;;;;;;23.50;40.89;101832.88;5035638;28;20045;-81
2023/06/16 07:27:31;;;;;;;10.05;5.22;;;;;;;23.42;36.43;101827.09;5034186;28;20405;-81
2023/06/16 07:29:56;;;;;;;12.17;5.80;;;;;;;23.04;37.90;101833.47;5036336;28;20068;-82
2023/06/16 07:32:21;;;;;;;7.83;4.23;;;;;;;22.88;40.03;101833.44;5034898;28;20032;-79
2023/06/16 07:34:47;;;;;;;8.73;4.90;;;;;;;23.03;37.45;101830.94;5034612;28;20851;-80
2023/06/16 07:37:13;;;;;;;4.80;3.50;;;;;;;23.12;40.00;101825.16;5035577;28;20026;-80
2023/06/16 07:39:39;;;;;;;9.32;4.88;;;;;;;23.31;38.66;101840.06;5035597;28;20017;-80
2023/06/16 07:42:05;;;;;;;8.90;5.00;;;;;;;23.21;38.39;101839.72;5034779;28;20380;-80
2023/06/16 07:44:30;;;;;;;5.60;3.65;;;;;;;23.41;40.06;101833.38;5035152;28;20396;-80
2023/06/16 07:46:55;;;;;;;6.37;4.00;;;;;;;23.68;39.84;101838.97;5035257;28;20025;-80
2023/06/16 07:49:21;;;;;;;6.37;4.00;;;;;;;23.89;37.29;101838.69;5033319;28;20473;-80
2023/06/16 07:51:46;;;;;;;6.77;4.27;;;;;;;23.78;38.94;101828.69;5035333;28;20109;-81
2023/06/16 07:54:11;;;;;;;4.80;3.40;;;;;;;23.96;38.07;101831.28;5034898;28;20017;-79
2023/06/16 07:56:38;;;;;;;7.37;4.40;;;;;;;23.84;36.51;101823.06;5034439;28;20022;-80
2023/06/16 07:59:06;;;;;;;5.32;3.67;;;;;;;23.89;38.43;101823.63;5046471;28;20111;-80
2023/06/16 08:01:31;;;;;;;4.38;3.53;;;;;;;23.95;37.23;101829.53;5036664;28;20037;-80
2023/06/16 08:03:57;;;;;;;6.50;3.70;;;;;;;24.09;35.55;101832.31;5054189;28;20043;-80
2023/06/16 08:06:23;;;;;;;7.67;3.93;;;;;;;24.04;36.24;101831.69;5054472;28;20033;-79
2023/06/16 08:08:49;;;;;;;10.10;5.00;;;;;;;23.72;35.37;101818.44;5054846;28;20029;-79
2023/06/16 08:11:21;;;;;;;8.68;4.78;;;;;;;23.59;34.12;101824.41;5054070;28;20036;-80
2023/06/16 08:13:51;;;;;;;8.95;4.97;;;;;;;23.38;34.58;101820.28;5037727;28;20029;-80
2023/06/16 08:16:16;;;;;;;9.60;5.28;;;;;;;23.22;33.54;101820.25;5044303;28;20018;-79
2023/06/16 08:18:42;;;;;;;7.78;4.68;;;;;;;23.23;34.37;101821.97;5034356;28;20029;-79
2023/06/16 08:21:07;;;;;;;5.53;3.70;;;;;;;23.40;36.02;101818.41;5034694;28;20105;-80
2023/06/16 08:23:32;;;;;;;4.03;3.20;;;;;;;23.73;37.66;101821.00;5034759;28;20485;-80
2023/06/16 08:26:01;;;;;;;4.47;3.20;;;;;;;24.11;36.72;101819.78;5033681;28;20029;-80
2023/06/16 08:28:26;;;;;;;2.92;2.60;;;;;;;24.44;35.17;101816.13;5034348;28;20407;-80
2023/06/16 08:30:52;;;;;;;6.30;3.70;;;;;;;24.55;35.04;101815.50;5033812;28;20137;-80
2023/06/16 08:33:17;;;;;;;4.63;3.20;;;;;;;24.62;33.53;101818.66;5034476;28;20063;-81
2023/06/16 08:35:42;;;;;;;5.13;3.37;;;;;;;24.72;32.95;101816.31;5040605;28;20047;-80
2023/06/16 08:38:08;;;;;;;5.85;3.45;;;;;;;24.82;32.00;101815.69;5053495;28;20021;-80
2023/06/16 08:40:34;;;;;;;5.13;3.67;;;;;;;24.90;33.47;101814.34;5054144;28;20037;-80
2023/06/16 08:43:04;;;;;;;3.85;3.13;;;;;;;24.97;34.23;101813.03;5054218;28;20037;-80
2023/06/16 08:45:30;;;;;;;8.35;4.30;;;;;;;24.97;30.46;101815.69;5053064;28;20021;-80
2023/06/16 08:47:56;;;;;;;6.28;3.70;;;;;;;24.93;30.96;101816.81;5054120;28;20346;-80
2023/06/16 08:50:23;;;;;;;7.18;4.00;;;;;;;24.95;31.51;101817.59;5040533;28;20064;-80
2023/06/16 08:52:52;;;;;;;5.65;3.55;;;;;;;24.86;32.85;101810.19;5033314;28;20021;-81
2023/06/16 08:55:19;;;;;;;4.82;3.38;;;;;;;24.94;32.14;101813.22;5033293;28;20032;-80
2023/06/16 08:57:51;;;;;;;6.18;3.75;;;;;;;24.76;31.22;101807.22;5034155;28;20025;-80
2023/06/16 09:00:18;;;;;;;5.65;3.80;;;;;;;24.75;31.33;101814.34;5049384;28;20041;-80
2023/06/16 09:02:48;;;;;;;4.60;3.20;;;;;;;24.90;32.61;101806.38;5053154;28;20395;-80
2023/06/16 09:05:15;;;;;;;6.35;3.78;;;;;;;25.11;31.18;101813.03;5053598;28;20025;-80
2023/06/16 09:07:41;;;;;;;4.57;3.13;;;;;;;25.31;32.31;101804.78;5052767;28;20029;-80
2023/06/16 09:10:10;;;;;;;5.38;3.40;;;;;;;25.58;30.99;101813.69;5035434;28;20376;-81
2023/06/16 09:12:36;;;;;;;4.60;3.35;;;;;;;25.65;30.51;101818.59;5015090;28;20121;-81
2023/06/16 09:15:10;;;;;;;4.40;2.88;;;;;;;25.77;31.31;101811.66;5032425;28;20048;-81
2023/06/16 09:17:37;;;;;;;3.03;2.72;;;;;;;25.99;31.38;101811.09;5033845;28;20033;-81
2023/06/16 09:20:04;;;;;;;3.28;2.80;;;;;;;26.12;29.21;101819.19;5032776;28;20033;-81
2023/06/16 09:22:32;;;;;;;2.80;2.50;;;;;;;26.25;31.30;101816.53;5033146;28;20499;-80
2023/06/16 09:25:01;;;;;;;3.47;2.63;;;;;;;26.41;28.59;101816.38;5033475;28;20037;-80
2023/06/16 09:27:45;;;;;;;4.85;3.42;;;;;;;26.02;29.68;101821.53;5014909;28;20076;-80
2023/06/16 09:30:13;;;;;;;3.20;2.90;;;;;;;26.17;31.03;101814.38;5012882;28;20041;-80
2023/06/16 09:32:39;;;;;;;5.60;3.60;;;;;;;26.19;27.66;101812.47;5013338;28;20493;-79
2023/06/16 09:35:22;;;;;;;5.95;3.75;;;;;;;26.35;29.41;101805.16;5012731;28;20021;-80
2023/06/16 09:38:09;;;;;;;5.65;3.58;;;;;;;26.32;27.53;101801.84;5013030;28;20069;-80
2023/06/16 09:40:38;;;;;;;4.20;3.25;;;;;;;26.31;29.28;101798.38;5017354;28;20025;-82
2023/06/16 09:43:10;;;;;;;5.75;3.40;;;;;;;26.54;29.56;101800.41;5030597;28;20500;-89
2023/06/16 09:46:02;;;;;;;3.42;3.03;;;;;;;26.74;29.59;101807.03;5032748;28;20029;-82
2023/06/16 09:48:34;;;;;;;5.25;3.22;;;;;;;26.91;28.66;101804.06;5038519;28;20066;-82
2023/06/16 09:51:07;;;;;;;3.80;3.03;;;;;;;26.96;30.17;101801.09;5053044;28;20393;-81
2023/06/16 09:53:32;;;;;;;3.60;2.70;;;;;;;27.12;31.05;101795.56;5041221;28;20056;-79
2023/06/16 09:55:59;;;;;;;5.25;3.20;;;;;;;27.26;27.12;101798.06;5031639;28;20198;-81
2023/06/16 09:58:24;;;;;;;5.78;3.30;;;;;;;27.15;26.44;101799.81;5037644;28;20037;-83
2023/06/16 10:00:50;;;;;;;5.45;3.75;;;;;;;26.96;28.19;101801.94;5052752;28;20039;-80
2023/06/16 10:03:16;;;;;;;6.70;3.50;;;;;;;26.73;26.60;101789.34;5052389;28;20429;-80
2023/06/16 10:06:22;;;;;;;4.95;3.38;;;;;;;26.61;26.36;101796.38;5052569;28;20686;-80
2023/06/16 10:08:48;;;;;;;4.97;3.47;;;;;;;26.81;27.29;101797.69;5052234;28;20037;-81
2023/06/16 10:11:22;;;;;;;4.40;3.10;;;;;;;27.10;26.59;101794.81;5042751;28;20018;-81
2023/06/16 10:13:54;;;;;;;4.80;3.10;;;;;;;27.36;26.22;101802.75;5032663;28;20026;-80
2023/06/16 10:16:28;;;;;;;5.63;3.42;;;;;;;27.21;24.03;101794.88;5032092;28;20029;-80
2023/06/16 10:18:58;;;;;;;5.18;3.70;;;;;;;26.85;26.75;101780.53;5014995;28;20113;-80
2023/06/16 10:21:27;;;;;;;5.53;3.60;;;;;;;26.99;25.55;101790.22;5032315;28;20033;-80
2023/06/16 10:23:53;;;;;;;3.55;3.15;;;;;;;27.20;26.42;101793.19;5031549;28;20063;-81
2023/06/16 10:26:22;;;;;;;3.30;2.85;;;;;;;27.43;28.11;101788.00;5006738;28;20597;-82
2023/06/16 10:28:51;;;;;;;7.60;3.47;;;;;;;27.44;25.48;101787.94;5008413;28;20428;-82
2023/06/16 10:31:59;;;;;;;4.63;3.20;;;;;;;27.40;26.39;101780.22;5030846;28;20022;-81
2023/06/16 10:34:51;;;;;;;3.33;3.00;;;;;;;27.69;26.90;101774.63;5032086;28;20034;-82
2023/06/16 10:37:37;;;;;;;4.70;3.25;;;;;;;27.93;25.47;101773.75;5031606;28;20121;-82
2023/06/16 10:40:28;;;;;;;4.32;3.30;;;;;;;28.01;23.73;101772.22;5016365;28;20107;-82
2023/06/16 10:42:57;;;;;;;6.72;3.65;;;;;;;27.33;24.51;101771.00;5031266;28;20041;-81
2023/06/16 10:45:28;;;;;;;5.95;3.90;;;;;;;26.88;25.79;101769.69;5031533;28;20025;-82
2023/06/16 10:48:05;;;;;;;5.07;3.25;;;;;;;27.25;25.77;101769.72;5031479;28;20021;-81
2023/06/16 10:51:02;;;;;;;4.18;3.20;;;;;;;27.42;26.25;101767.66;5027297;28;20415;-82
2023/06/16 10:53:37;;;;;;;5.43;3.10;;;;;;;27.80;26.89;101761.34;5011440;28;20359;-82
2023/06/16 10:56:07;;;;;;;4.95;3.65;;;;;;;27.93;24.01;101763.09;5011833;28;20026;-82
2023/06/16 10:58:33;;;;;;;5.07;3.10;;;;;;;27.96;27.91;101758.41;5029015;28;20076;-81
2023/06/16 11:01:01;;;;;;;;;;;;;;;28.28;28.19;101762.25;5031774;28;20373;-82
2023/06/16 11:04:01;;;;;;;3.22;2.80;;;;;;;28.66;27.17;101758.47;5033611;28;19913;-82
2023/06/16 11:06:30;;;;;;;5.13;3.30;;;;;;;28.89;26.48;101756.66;5027281;28;20041;-88
2023/06/16 11:08:57;;;;;;;3.53;2.55;;;;;;;29.10;26.65;101751.44;5034372;28;20034;-86
2023/06/16 11:11:33;;;;;;;4.22;3.00;;;;;;;29.20;25.41;101753.38;5035556;28;20167;-88
2023/06/16 11:14:01;;;;;;;3.60;2.85;;;;;;;29.20;26.63;101754.22;5035024;28;20021;-87
2023/06/16 11:16:28;;;;;;;3.60;3.00;;;;;;;29.23;25.97;101748.63;5035171;28;20524;-84
2023/06/16 11:18:55;;;;;;;4.80;3.40;;;;;;;29.13;23.46;101748.53;5035370;28;20489;-81
2023/06/16 11:21:42;;;;;;;5.07;3.35;;;;;;;29.02;24.76;101750.34;5033927;28;20477;-81
2023/06/16 11:24:50;;;;;;;4.57;3.40;;;;;;;29.11;26.12;101741.59;5018890;28;20090;-81
2023/06/16 11:27:52;;;;;;;4.65;3.20;;;;;;;29.33;24.69;101743.41;5033693;28;20055;-83
2023/06/16 11:30:17;;;;;;;3.90;3.08;;;;;;;29.47;23.71;101744.13;5015189;28;20045;-82
2023/06/16 11:32:47;;;;;;;3.90;2.70;;;;;;;29.60;25.94;101739.47;5015555;28;20037;-83